Wanze, Belgium
Current Conditions -  °F | °C
As of 10:20 PM on Friday 28 Nov 2014 (Local Time) from EBLG Reporting Station
Haze Haze  
Wind Chill: 34°   Ceiling: Unl
Heat Index: 37°   Visibility: 2.8mi
Dew Point: 36°   Wind: 5mph
Humidity: 93%   Direction: 30°NNE
Pressure: 29.8"   Gusts: NA
Location:  50.54°N, 5.21°E
Report Text: EBLG 282120Z 03004KT 4500 BR NSC 03/02 Q1009 NOSIG
Loading
Personal Weather Stations






























Interactive Weather Map New forecast layout! Learn more

10-Day Weather Forecast

Advertisements
Track Severe Weather on mobile